Tiempo atmosférico en la estación meteorológica de San Sebastián Aeropuerto, Gipuzkoa (4 m.)



Fecha
DESCASC
Temp. máxima en grados centígrados (hora)
DESCASC
Temp. mínima en grados centígrados (hora)
DESCASC
Temp. media en grados centígrados
DESCASC
Racha de viento máxima en m/sg (hora)
DESCASC
Velocidad máxima media en intervalos de 10 minutos(hora)
DESCASC
Precipitaciones diarias en mm
DESCASC
Precipitaciones de 00:00 a 06:00 en mm
DESCASC
Precipitaciones de 06:00 a 12:00 en mm
DESCASC
Precipitaciones de 12:00 a 18:00 en mm
DESCASC
Precipitaciones de 18:00 a 24:00 en mm
DESCASC
18-08-2019 25.3 (11:30) 17.6 (23:10) 21.4 8.89 (20:20) 5.28 (20:20) 9.4 0 0 0.8 8.6
17-08-2019 27.5 (15:50) 15.1 (07:30) 21.3 5.83 (17:50) 3.89 (17:50) 0 0 0 0 0
16-08-2019 26.8 (18:10) 14.4 (05:40) 20.6 5.83 (14:10) 3.89 (14:10) 0 0 0 0 0
15-08-2019 24.1 (16:00) 17 (00:00) 20.6 8.89 (06:10) 4.72 (07:30) 1.2 0.8 0.4 0 0
14-08-2019 26.7 (15:20) 13.3 (00:00) 20 7.78 (14:20) 4.72 (15:40) 0.1 0 0 0 0.1
13-08-2019 22.4 (13:50) 15.2 (00:00) 18.8 5 (13:40) 3.61 (13:40) 0 0 0 0 0
12-08-2019 21.9 (16:20) 15.7 (00:00) 18.8 11.39 (10:50) 6.67 (13:10) 14.4 7.9 3.9 0.3 2.3
11-08-2019 22.4 (16:50) 17.1 (00:00) 19.8 7.22 (08:30) 3.89 (08:30) 28.3 6.2 22.1 0 0
10-08-2019 22.4 (15:50) 19.3 (00:00) 20.8 6.11 (14:10) 3.89 (14:00) 0 0 0 0 0
09-08-2019 31.6 (10:40) 20.3 (00:00) 25.9 9.17 (10:50) 5 (18:40) 0.8 0 0 0 0.8
08-08-2019 34.2 (14:40) 20.5 (00:00) 27.4 8.33 (14:40) 5 (12:50) 0 0 0 0 0
07-08-2019 25.3 (15:20) 19.3 (00:00) 22.3 6.11 (17:20) 4.72 (17:30) 4 4 0 0 0
06-08-2019 24.6 (16:00) 20.4 (00:00) 22.5 5.83 (14:30) 3.61 (17:40) 0 0 0 0 0
05-08-2019 24 (13:50) 19.7 (00:00) 21.9 4.72 (14:40) 3.06 (13:20) 0.5 0.5 0 0 0
04-08-2019 23.9 (12:50) 20.6 (00:00) 22.3 5.83 (14:10) 3.61 (03:30) 0 0 0 0 0
03-08-2019 26.8 (18:10) 17.1 (00:00) 21.9 5.83 (15:50) 3.89 (13:30) 0 0 0 0 0
02-08-2019 24 (14:40) 18 (00:00) 21 5.83 (18:50) 3.89 (14:30) 0 0 0 0 0
01-08-2019 25.1 (14:00) 17.1 (00:00) 21.1 11.39 (10:00) 7.5 (08:30) 22 0.1 21.9 0 0
31-07-2019 23.8 (15:30) 13.7 (00:00) 18.7 8.33 (15:20) 6.39 (15:20) 0 0 0 0 0
30-07-2019 22.9 (17:10) 16.2 (00:00) 19.6 11.39 (11:40) 7.5 (12:10) 8.1 0.6 7.2 0.1 0.2
29-07-2019 25.3 (13:40) 13.6 (00:00) 19.4 10.28 (14:10) 6.39 (14:10) 0.9 0 0 0 0.9
28-07-2019 23.4 (16:00) 16.2 (00:00) 19.8 10.28 (00:10) 6.11 (00:10) 8.7 8.6 0 0.1 0
27-07-2019 19 (16:50) 16.4 (00:00) 17.7 8.89 (17:50) 5.56 (22:20) 50 1.9 24.3 15.4 8.4
26-07-2019 22.7 (01:10) 18 (00:00) 20.4 10.28 (14:30) 6.11 (12:00) 20.9 1.8 9 5.7 4.4
25-07-2019 27.3 (02:30) 22.2 (00:00) 24.8 9.72 (20:00) 5.83 (02:40) 7.5 0 0 0 7.5
24-07-2019 28.7 (20:10) 22.2 (00:00) 25.5 8.33 (20:00) 4.72 (20:00) 0 0 0 0 0
23-07-2019 40 (16:00) 20.8 (00:00) 30.4 16.39 (20:10) 8.33 (22:10) 0.2 0 0 0 0.2
22-07-2019 28.7 (16:40) 21.5 (00:00) 25.1 5.83 (12:40) 4.17 (16:50) 0 0 0 0 0
21-07-2019 25.9 (17:20) 20.5 (00:00) 23.2 7.78 (11:10) 5.28 (11:30) 0.4 0.4 0 0 0

Gráficas

Temp. máximas Temp. mínimas Temp. medias Precipitaciones Rachas de viento máximas Velocidades máximas media en intervalos de 10 minutos

Datos horarios

Fecha y hora oficial Temperatura (ºC) Velocidad del viento (km/h) Dirección del viento Racha (km/h) Dirección de racha Precipitación (mm) Presión (hPa) Tendencia (hPa) Humedad (%)
2019-08-19 23:00:00 20.2 12 Este 28 Nordeste 0 1021.1 1 73
2019-08-19 22:00:00 20.3 15 Nordeste 26 Nordeste 0 1020.7 0.9 69
2019-08-19 21:00:00 20.4 8 Este 21 Este 0 1020.4 0.4 70
2019-08-19 20:00:00 20.7 12 Nordeste 18 Nordeste 0 1020.1 0.1 67
2019-08-19 19:00:00 20.4 10 Norte 22 Nordeste 0 1019.8 -0.4 71
2019-08-19 18:00:00 20.7 17 Nordeste 24 Nordeste 0 1020 -0.1 67
2019-08-19 17:00:00 21.1 12 Norte 21 Nordeste 0 1020 0 65
2019-08-19 16:00:00 21.8 10 Este 17 Nordeste 0 1020.2 0.3 53
2019-08-19 15:00:00 21.9 13 Norte 18 Nordeste 0 1020.1 0.2 60
2019-08-19 14:00:00 22 14 Norte 21 Nordeste 0 1020 0.3 60
2019-08-19 13:00:00 21.7 15 Nordeste 22 Nordeste 0 1019.9 0.4 61
2019-08-19 12:00:00 21.4 12 Nordeste 21 Este 0 1019.9 0.4 63
2019-08-19 11:00:00 19.7 8 Norte 11 Norte 0 1019.7 0.2 77
2019-08-19 10:00:00 18.6 0 Calma 8 Sur 0 1019.5 -0.1 89
2019-08-19 09:00:00 17.6 4 Sur 11 Sur 0 1019.5 0.3 92
2019-08-19 08:00:00 17.2 4 Sur 11 Sudeste 0 1019.5 0.4 91
2019-08-19 07:00:00 17.2 7 Sudeste 9 Sudeste 0 1019.6 0.3 93
2019-08-19 06:00:00 17.1 5 Sur 9 Sur 0 1019.2 -0.4 93
2019-08-19 05:00:00 17.1 8 Sur 11 Sudeste 0 1019.1 -0.6 92
2019-08-19 04:00:00 17.1 7 Sudoeste 11 Oeste 0 1019.3 -0.5 94
2019-08-19 03:00:00 17.1 10 Oeste 17 Sur 0.3 1019.6 0.3 95
2019-08-19 02:00:00 16.8 9 Sudoeste 17 Sur 2.3 1019.7 0.7 94
2019-08-19 01:00:00 17.7 5 Oeste 9 Oeste 0.2 1019.8 1.7 92
2019-08-19 00:00:00 18 4 Oeste 11 Sudoeste 0.2 1019.3 2 90
2019-08-18 23:00:00 17.8 7 Sudoeste 11 Sudoeste 1.8 1019 2.4 93
2019-08-18 22:00:00 18.1 6 Oeste 17 Noroeste 0.3 1018.1 2.4 91
2019-08-18 21:00:00 18 13 Noroeste 32 Noroeste 1.8 1017.3 1.9 87
2019-08-18 20:00:00 19 15 Noroeste 28 Noroeste 1.5 1016.6 2 91
2019-08-18 19:00:00 20.2 13 Norte 22 Norte 3 1015.7 1.7 91
2019-08-18 18:00:00 21.1 6 Oeste 18 Norte 0.8 1015.4 1.9 88
2019-08-18 17:00:00 22.4 12 Noroeste 28 Noroeste 0 1014.6 0.9 78
2019-08-18 16:00:00 23.3 13 Noroeste 26 Oeste 0 1014 0 77
2019-08-18 15:00:00 25 8 Noroeste 21 Oeste 0 1013.5 0.3 68
2019-08-18 14:00:00 24.9 10 Oeste 18 Noroeste 0 1013.7 1.1 71
2019-08-18 13:00:00 24.4 10 Oeste 24 Sudoeste 0 1014 2.1 72
2019-08-18 12:00:00 24.1 8 Oeste 24 Noroeste 0 1013.2 2.2 72
2019-08-18 11:00:00 23.8 13 Oeste 22 Oeste 0 1012.6 2.8 73
2019-08-18 10:00:00 23.2 10 Oeste 21 Oeste 0 1011.9 3.1 76
2019-08-18 09:00:00 20.3 6 Sur 11 Sur 0 1011 2.6 82
2019-08-18 08:00:00 18.5 8 Sur 11 Sur 0 1009.8 0.3 88
2019-08-18 07:00:00 18.4 8 Sudoeste 11 Sudeste 0 1008.8 -1.2 88
2019-08-18 06:00:00 18.3 4 Oeste 17 Sudeste 0 1008.4 -1.7 87
2019-08-18 05:00:00 19 10 Sur 13 Sur 0 1009.5 -1.3 88
2019-08-18 04:00:00 18.7 9 Sur 11 Sur 0 1010 -1.4 89
2019-08-18 03:00:00 19.1 7 Sudeste 11 Sudeste 0 1010.1 -1.9 87
2019-08-18 02:00:00 19.8 7 Sur 9 Sur 0 1010.8 -1.7 84
2019-08-18 01:00:00 20.1 6 Sur 9 Sur 0 1011.4 -1.2 83
2019-08-18 00:00:00 20.6 5 Sur 9 Sudoeste 0 1012 0 79
2019-08-17 23:00:00 21.5 6 Sudoeste 9 Sur 0 1012.5 0.7 75
2019-08-17 22:00:00 22.3 4 Noroeste 8 Noroeste 0 1012.6 0.2 74
2019-08-17 21:00:00 23.6 4 Norte 13 Norte 0 1012 -0.7 71
2019-08-17 20:00:00 24.5 8 Norte 15 Nordeste 0 1011.8 -1.3 74
2019-08-17 19:00:00 24.7 12 Nordeste 18 Nordeste 0 1012.4 -1.1 74
2019-08-17 18:00:00 25.6 13 Norte 21 Norte 0 1012.7 -1.3 69
2019-08-17 17:00:00 26.5 13 Norte 18 Norte 0 1013.1 -1.1 68
2019-08-17 16:00:00 27.4 13 Norte 15 Norte 0 1013.5 -1.2 61
2019-08-17 15:00:00 26 11 Norte 17 Nordeste 0 1014 -1.3 66
2019-08-17 14:00:00 26.1 11 Norte 18 Norte 0 1014.2 -1.5 63
2019-08-17 13:00:00 24.9 11 Norte 13 Nordeste 0 1014.7 -1 68
2019-08-17 12:00:00 24.2 6 Nordeste 13 Norte 0 1015.3 -0.1 64
2019-08-17 11:00:00 22.6 0 Calma 9 Sur 0 1015.7 0.5 62
2019-08-17 10:00:00 20 8 Sur 13 Sudoeste 0 1015.7 0.3 64
2019-08-17 09:00:00 17.3 6 Sur 13 Sur 0 1015.4 0 74
2019-08-17 08:00:00 15.7 9 Sur 13 Sudeste 0 1015.2 -0.8 83
2019-08-17 07:00:00 15.3 6 Sur 9 Sur 0 1015.4 -1 84
2019-08-17 06:00:00 15.7 7 Sur 13 Sur 0 1015.4 -1.2 83
2019-08-17 05:00:00 16.5 8 Sur 11 Sur 0 1016 -0.9 82
2019-08-17 04:00:00 16.8 8 Sur 13 Sur 0 1016.4 -0.6 80
2019-08-17 03:00:00 17.1 9 Sur 13 Sur 0 1016.6 -0.3 74
2019-08-17 02:00:00 17.6 9 Sur 11 Sur 0 1016.9 0 72
2019-08-17 01:00:00 18.4 9 Sur 13 Sur 0 1017 0.6 75
2019-08-17 00:00:00 19.7 8 Sur 17 Sudoeste 0 1016.9 1.1 76
2019-08-16 23:00:00 20.8 10 Sudoeste 15 Sudoeste 0 1016.9 1.7 75
2019-08-16 22:00:00 21.6 10 Sudoeste 15 Sudoeste 0 1016.4 1.3 72
2019-08-16 21:00:00 23.1 9 Sur 18 Oeste 0 1015.8 0.4 63
2019-08-16 20:00:00 24.7 6 Noroeste 13 Nordeste 0 1015.2 -0.4 66
2019-08-16 19:00:00 24.7 11 Nordeste 17 Este 0 1015.1 -0.8 62
2019-08-16 18:00:00 26.4 7 Noroeste 15 Nordeste 0 1015.4 -1 57
2019-08-16 17:00:00 25 11 Nordeste 17 Norte 0 1015.6 -1.1 63
2019-08-16 16:00:00 24.5 10 Norte 15 Nordeste 0 1015.9 -1.3 65
2019-08-16 15:00:00 23.7 12 Norte 21 Nordeste 0 1016.4 -1.1 67
2019-08-16 14:00:00 23.2 14 Norte 18 Nordeste 0 1016.7 -1.2 68
2019-08-16 13:00:00 22.7 11 Norte 17 Norte 0 1017.2 -1.5 68
2019-08-16 12:00:00 22 10 Norte 13 Norte 0 1017.5 -1.5 67
2019-08-16 11:00:00 20.1 3 Sur 8 Sur 0 1017.9 -1.4 69
2019-08-16 10:00:00 17.9 8 Sudeste 11 Sur 0 1018.7 -0.6 78
2019-08-16 09:00:00 15.6 6 Sur 9 Sur 0 1019 -0.6 86
2019-08-16 08:00:00 14.7 9 Sudeste 13 Sudeste 0 1019.3 -0.3 89
2019-08-16 07:00:00 14.5 10 Sur 13 Sur 0 1019.3 -0.9 91
2019-08-16 06:00:00 14.7 9 Sur 11 Sur 0 1019.6 -1.4 91
2019-08-16 05:00:00 15 8 Sur 11 Sudeste 0 1019.6 -1.8 90
2019-08-16 04:00:00 15.6 5 Sudeste 13 Sudeste 0 1020.2 -1.5 88
2019-08-16 03:00:00 15.8 6 Sur 13 Sur 0 1021 -1.4 89
2019-08-16 02:00:00 16.4 6 Sur 9 Sur 0 1021.4 -1.3 87
2019-08-16 01:00:00 16.5 5 Sur 9 Sudoeste 0 1021.7 -0.6 88
2019-08-16 00:00:00 17 5 Sur 9 Sur 0 1022.4 0.6 86
2019-08-15 23:00:00 17.9 6 Sur 9 Sur 0 1022.7 0.6 83
2019-08-15 22:00:00 18.6 6 Sur 8 Sudoeste 0 1022.3 0 80
2019-08-15 21:00:00 20.8 5 Nordeste 11 Nordeste 0 1021.8 -0.7 70
2019-08-15 20:00:00 21.8 7 Norte 15 Nordeste 0 1022.1 -0.6 63
2019-08-15 19:00:00 22.1 9 Norte 17 Nordeste 0 1022.3 -0.5 61
2019-08-15 18:00:00 22.8 8 Norte 17 Norte 0 1022.5 -0.1 57
2019-08-15 17:00:00 22.6 9 Norte 21 Norte 0 1022.7 0 58
2019-08-15 16:00:00 23.9 15 Noroeste 28 Oeste 0 1022.8 -0.1 57
2019-08-15 15:00:00 23.4 11 Noroeste 28 Noroeste 0 1022.6 -0.3 57
2019-08-15 14:00:00 22.1 14 Noroeste 24 Noroeste 0 1022.7 -0.1 67
2019-08-15 13:00:00 21.9 11 Noroeste 21 Noroeste 0 1022.9 0.4 69
2019-08-15 12:00:00 21.1 7 Noroeste 15 Noroeste 0 1022.9 0.8 73
2019-08-15 11:00:00 20.6 9 Sudoeste 21 Sudoeste 0.1 1022.8 1.2 79
2019-08-15 10:00:00 19.8 9 Oeste 18 Sudoeste 0 1022.5 1.6 82
2019-08-15 09:00:00 19.7 9 Sudoeste 32 Noroeste 0 1022.1 2 81
2019-08-15 08:00:00 19.9 11 Oeste 32 Oeste 0 1021.6 1.8 78
2019-08-15 07:00:00 19.8 14 Oeste 32 Noroeste 0.3 1020.9 0.9 84
2019-08-15 06:00:00 20.2 9 Noroeste -- -- -- 1020.1 -0.2 91
2019-08-15 05:00:00 19.5 9 Sudoeste 17 Sudoeste 0 1019.8 -0.6 89
2019-08-15 04:00:00 19.5 14 Sudoeste 18 Sur 0 1020 -0.5 89
2019-08-15 03:00:00 19.9 13 Sudoeste 17 Sudoeste 0 1020.3 -0.5 86
2019-08-15 02:00:00 20.1 10 Sudoeste 18 Sudoeste 0 1020.4 -0.3 84
2019-08-15 01:00:00 19.7 12 Sudoeste 17 Oeste 0 1020.5 0.3 89
2019-08-15 00:00:00 19.8 11 Sudoeste 21 Sudoeste 0 1020.8 0.9 89
2019-08-14 23:00:00 20.2 14 Sudoeste 21 Sudoeste 0.1 1020.7 1.3 90
2019-08-14 22:00:00 22.2 10 Sudoeste 17 Oeste 0 1020.2 0.7 68
2019-08-14 21:00:00 22.6 12 Oeste 17 Oeste 0 1019.9 0.5 69
2019-08-14 20:00:00 23.5 9 Oeste 15 Oeste 0 1019.4 -0.2 57
2019-08-14 19:00:00 25.4 10 Sudoeste 21 Norte 0 1019.5 0.1 40
2019-08-14 18:00:00 26.2 11 Oeste 22 Oeste 0 1019.4 0.3 45
2019-08-14 17:00:00 25.9 13 Oeste 26 Noroeste 0 1019.6 0.2 45
2019-08-14 16:00:00 26.3 13 Noroeste 26 Noroeste 0 1019.4 -0.2 41
2019-08-14 15:00:00 26.4 10 Noroeste 28 Nordeste 0 1019.1 -0.5 41
2019-08-14 14:00:00 23.4 15 Nordeste 18 Nordeste 0 1019.4 -0.2 59
2019-08-14 13:00:00 22.8 11 Nordeste 15 Nordeste 0 1019.6 -0.2 61
2019-08-14 12:00:00 22.7 9 Norte 13 Norte 0 1019.6 -0.2 53
2019-08-14 11:00:00 20.1 5 Sur 8 Sur 0 1019.6 0 62
2019-08-14 10:00:00 17.3 7 Sur 11 Sur 0 1019.8 0.2 74
2019-08-14 09:00:00 15.8 9 Sur 13 Sur 0 1019.8 0.1 80
2019-08-14 08:00:00 14.2 6 Sur 11 Sur 0 1019.6 -0.5 85
2019-08-14 07:00:00 14.1 7 Sur 13 Sudeste 0 1019.6 -0.7 85
2019-08-14 06:00:00 13.6 9 Sur 11 Sur 0 1019.7 -1.3 88
2019-08-14 05:00:00 13.9 5 Sur 9 Sur 0 1020.1 -1.5 87
2019-08-14 04:00:00 14.9 8 Sur 11 Sur 0 1020.3 -1.4 84
2019-08-14 03:00:00 14.8 8 Sur 13 Sudeste 0 1021 -0.8 87
2019-08-14 02:00:00 15.4 9 Sudeste 11 Sudeste 0 1021.6 -0.5 84
2019-08-14 01:00:00 15.5 7 Sur 9 Sur 0 1021.7 -0.3 85
2019-08-14 00:00:00 16 6 Sur 11 Sur 0 1021.8 0 83
2019-08-13 23:00:00 17.1 8 Sur 11 Sur 0 1022.1 0.5 78
2019-08-13 22:00:00 18.5 9 Sur 13 Este 0 1022 0.3 73
2019-08-13 21:00:00 19.9 9 Nordeste 13 Nordeste 0 1021.8 -0.1 62
2019-08-13 20:00:00 20.9 8 Norte 15 Norte 0 1021.6 -0.4 58
2019-08-13 19:00:00 21.8 11 Norte 17 Norte 0 1021.7 -0.4 53
2019-08-13 18:00:00 21.7 12 Norte 18 Norte 0 1021.9 -0.2 54
2019-08-13 17:00:00 21.7 11 Norte 17 Norte 0 1022 -0.5 56
2019-08-13 16:00:00 21.7 12 Norte 18 Norte 0 1022.1 -0.7 54
2019-08-13 15:00:00 22.1 11 Norte 17 Norte 0 1022.1 -1 50
2019-08-13 14:00:00 21.9 12 Norte 18 Norte 0 1022.5 -0.5 51
2019-08-13 13:00:00 21.4 10 Norte 15 Norte 0 1022.8 -0.1 55
2019-08-13 12:00:00 20.3 4 Este 11 Sudeste 0 1023.1 -0.1 59
2019-08-13 11:00:00 18.6 7 Sur 11 Sudoeste 0 1023 0.4 72
2019-08-13 10:00:00 16.7 8 Sudoeste 11 Sur 0 1022.9 0.7 86
2019-08-13 09:00:00 15.8 7 Sudeste 13 Sur 0 1023.2 1 87
2019-08-13 08:00:00 15.6 12 Sur 13 Sur 0 1022.6 0.1 90
2019-08-13 07:00:00 15.5 9 Sudeste 13 Sur 0 1022.2 -0.6 90
2019-08-13 06:00:00 15.5 8 Sudeste 13 Sur 0 1022.2 -1.2 90
2019-08-13 05:00:00 15.8 9 Sur 13 Sudeste 0 1022.5 -1.5 88
2019-08-13 04:00:00 16.1 3 Sur 11 Sur 0 1022.8 -1.4 88
2019-08-13 03:00:00 15.9 7 Sur 9 Sur 0 1023.4 -1 90
2019-08-13 02:00:00 16 8 Sur 9 Sur 0 1024 -0.3 90
2019-08-13 01:00:00 16.2 6 Sur 11 Sur 0 1024.2 0.3 91
2019-08-13 00:00:00 16.8 6 Sur 11 Sur 0 1024.4 1.3 89
2019-08-12 23:00:00 17.2 8 Sur 15 Sur 0 1024.3 1.4 87
2019-08-12 22:00:00 17.5 3 Sudeste 15 Noroeste 0 1023.9 1.3 88
2019-08-12 21:00:00 18.2 3 Oeste 11 Oeste 0 1023.1 0.7 81
2019-08-12 20:00:00 18.2 4 Oeste 15 Sudoeste 0.1 1022.9 0.5 82
2019-08-12 19:00:00 17.8 13 Oeste 35 Noroeste 2.2 1022.6 0 81
2019-08-12 18:00:00 21.1 13 Sudoeste 35 Oeste 0 1022.4 -0.4 67
2019-08-12 17:00:00 21.1 21 Oeste 37 Noroeste 0 1022.4 -0.5 65
2019-08-12 16:00:00 21 18 Oeste 35 Oeste 0 1022.6 0 64
2019-08-12 15:00:00 20.2 18 Oeste 32 Oeste 0 1022.8 0.4 64
2019-08-12 14:00:00 19.4 17 Oeste 35 Sudoeste 0 1022.9 1 72
2019-08-12 13:00:00 19.6 18 Oeste 32 Oeste 0.3 1022.6 1.3 74
2019-08-12 12:00:00 18.1 18 Oeste 33 Oeste 3.2 1022.4 1.7 80
2019-08-12 11:00:00 18 23 Oeste 41 Oeste 0.3 1021.9 1.7 78
2019-08-12 10:00:00 18 17 Sudoeste 26 Sudoeste 0 1021.3 1.7 76
2019-08-12 09:00:00 16.7 17 Sudoeste 24 Sudoeste 0 1020.7 1.3 83
2019-08-12 08:00:00 15.8 15 Sudoeste 24 Sudoeste 0.4 1020.2 1 88
2019-08-12 07:00:00 15.9 17 Sur 22 Sur 0 1019.6 0.4 87
2019-08-12 06:00:00 16.3 17 Sudoeste 24 Sudoeste 0 1019.4 -0.4 84
2019-08-12 05:00:00 16.7 17 Sudoeste 30 Sudoeste 0.3 1019.2 -0.9 90
2019-08-12 04:00:00 16.9 16 Sur 22 Sur 6.6 1019.2 -1.1 92
2019-08-12 03:00:00 17.3 13 Sudoeste 18 Sudoeste 0.7 1019.8 -0.4 91
2019-08-12 02:00:00 17.5 11 Sudoeste 15 Sudoeste 0 1020.1 0.2 90
2019-08-12 01:00:00 17.9 9 Sudoeste 18 Sudoeste 0.3 1020.3 0.9 90
2019-08-12 00:00:00 18.4 9 Sudoeste 13 Sudoeste 0 1020.2 1 88
2019-08-11 23:00:00 18.5 6 Sudoeste 11 Oeste 0 1019.9 1.3 80
2019-08-11 22:00:00 18.7 5 Oeste 9 Oeste 0 1019.4 1.1 81
2019-08-11 21:00:00 19.6 3 Noroeste 13 Norte 0 1019.2 0.9 79
2019-08-11 20:00:00 20 10 Norte 17 Norte 0 1018.6 0.6 72
2019-08-11 19:00:00 20.8 13 Norte 21 Norte 0 1018.3 0.3 72
2019-08-11 18:00:00 21.7 13 Norte 21 Norte 0 1018.3 0.3 69
2019-08-11 17:00:00 21.6 12 Nordeste 17 Norte 0 1018 -0.4 72
2019-08-11 16:00:00 21.4 11 Norte 15 Norte 0 1018 -0.6 73
2019-08-11 15:00:00 20.9 7 Norte 17 Norte 0 1018 -0.4 76
2019-08-11 14:00:00 20 11 Nordeste 15 Nordeste 0 1018.4 0.4 78
2019-08-11 13:00:00 18.9 12 Nordeste 17 Nordeste 0 1018.6 0.8 83
2019-08-11 12:00:00 18.1 10 Este 15 Este 0 1018.4 0.5 88
2019-08-11 11:00:00 17.5 10 Este 18 Nordeste 0 1018 0.1 91
2019-08-11 10:00:00 17.4 11 Nordeste 18 Nordeste 0.8 1017.8 1.5 92
2019-08-11 09:00:00 17.2 14 Norte 26 Norte 9.8 1017.9 1.8 94
2019-08-11 08:00:00 17.9 8 Noroeste 11 Noroeste 9.9 1017.9 1.5 93
2019-08-11 07:00:00 18.2 8 Este 15 Este 1.6 1016.3 -0.6 90
2019-08-11 06:00:00 18.4 7 Este 17 Este 0.4 1016.1 -2.4 90
2019-08-11 05:00:00 18.8 12 Este 17 Este 0.9 1016.4 -2 92
2019-08-11 04:00:00 18.9 8 Este 13 Este 1.5 1016.9 -2.5 93
2019-08-11 03:00:00 18.9 5 Sudoeste 9 Sudoeste 0.2 1018.5 -0.7 92
2019-08-11 02:00:00 19.2 4 Oeste 15 Sudoeste 3.2 1018.4 -1.7 90
2019-08-11 01:00:00 20.2 10 Sur 15 Sudeste 0 1019.4 -0.4 81
2019-08-11 00:00:00 20.5 4 Sur 11 Sudoeste 0 1019.2 -0.4 81
2019-08-10 23:00:00 20.8 7 Sudoeste 9 Sudoeste 0 1020.1 0.7 78
2019-08-10 22:00:00 20.9 3 Oeste 8 Oeste 0 1019.8 0.4 75
2019-08-10 21:00:00 21.2 4 Nordeste 9 Norte 0 1019.6 -0.2 71
2019-08-10 20:00:00 21.8 6 Norte 11 Este 0 1019.4 -0.8 67
2019-08-10 19:00:00 21.9 6 Norte 11 Nordeste 0 1019.4 -1 65
2019-08-10 18:00:00 22 7 Nordeste 13 Nordeste 0 1019.8 -1 63
2019-08-10 17:00:00 21.7 9 Nordeste 13 Nordeste 0 1020.2 -0.6 71
2019-08-10 16:00:00 22.2 7 Noroeste 21 Noroeste 0 1020.4 -0.2 70
2019-08-10 15:00:00 21.2 10 Noroeste 22 Oeste 0 1020.8 0.1 75
2019-08-10 14:00:00 21 14 Noroeste 21 Noroeste 0 1020.8 0.4 76
2019-08-10 13:00:00 21.9 7 Oeste 11 Sudoeste 0 1020.6 0.4 70
2019-08-10 12:00:00 21.4 7 Sudoeste 11 Oeste 0 1020.7 1.5 79
2019-08-10 11:00:00 20.5 5 Sudeste 8 Este 0 1020.4 1.5 85
2019-08-10 10:00:00 20.3 4 Oeste 9 Oeste 0 1020.2 2 86
2019-08-10 09:00:00 20.4 3 Oeste 13 Sudeste 0 1019.2 1.4 82
2019-08-10 08:00:00 20.4 12 Este 17 Este 0 1018.9 1.6 83
2019-08-10 07:00:00 19.9 7 Sudeste 9 Este 0 1018.2 0.9 87
2019-08-10 06:00:00 19.6 6 Sur 9 Sur 0 1017.8 0.8 88
2019-08-10 05:00:00 19.4 6 Sur 8 Sur 0 1017.3 0.5 90
2019-08-10 04:00:00 19.4 3 Sudoeste 9 Sur 0 1017.3 0.8 89
2019-08-10 03:00:00 20.1 7 Sudeste 8 Sur 0 1017 1 88
2019-08-10 02:00:00 19.9 4 Sur 9 Sudeste 0 1016.8 0.7 87
2019-08-10 01:00:00 19.7 6 Sudoeste 9 Sur 0 1016.5 1 89
2019-08-10 00:00:00 20.4 0 Calma 11 Sudeste 0 1016 1.9 85
2019-08-09 23:00:00 20.9 6 Oeste 15 Sudeste 0 1016.1 3.8 86
2019-08-09 22:00:00 22 8 Sudeste 13 Norte 0.8 1015.5 4.3 85
2019-08-09 21:00:00 23.6 8 Noroeste 18 Norte 0 1014.1 2.6 67
2019-08-09 20:00:00 23.8 10 Norte 21 Nordeste 0 1012.3 0.8 70
2019-08-09 19:00:00 23.2 17 Nordeste 28 Nordeste 0 1011.2 -0.8 73
2019-08-09 18:00:00 23.2 15 Nordeste 21 Nordeste 0 1011.5 -0.3 74
2019-08-09 17:00:00 23.8 14 Nordeste 18 Nordeste 0 1011.5 -0.3 72
2019-08-09 16:00:00 23.6 12 Nordeste 17 Nordeste 0 1012 0.6 71
2019-08-09 15:00:00 24.1 8 Norte 17 Norte 0 1011.8 0.9 71
2019-08-09 14:00:00 24.1 11 Norte 21 Noroeste 0 1011.8 2.2 74
2019-08-09 13:00:00 24.3 14 Norte 24 Norte 0 1011.4 3 76
2019-08-09 12:00:00 27 14 Norte 26 Norte 0 1010.9 3.2 72
2019-08-09 11:00:00 27.6 15 Noroeste 33 Noroeste 0 1009.6 2.2 68
2019-08-09 10:00:00 29.1 3 Nordeste 9 Sur 0 1008.4 1.3 56
2019-08-09 09:00:00 25.7 8 Sur 11 Sur 0 1007.7 0.8 70
2019-08-09 08:00:00 23.4 11 Sur 15 Sudoeste 0 1007.4 0.9 75
2019-08-09 07:00:00 22.8 4 Sudoeste 17 Sur 0 1007.1 0.7 77
2019-08-09 06:00:00 23.3 5 Este 11 Oeste 0 1006.9 0.3 73
2019-08-09 05:00:00 24 5 Sudoeste 13 Oeste 0 1006.5 -0.1 75
2019-08-09 04:00:00 25 6 Sur 15 Sur 0 1006.4 -0.1 72
2019-08-09 03:00:00 25.4 11 Sur 15 Sur 0 1006.6 0.4 71
2019-08-09 02:00:00 25.3 10 Sur 13 Sudoeste 0 1006.6 0.3 74
2019-08-09 01:00:00 25.6 10 Sur 13 Sudoeste 0 1006.5 0.2 75
2019-08-09 00:00:00 25.8 8 Sudoeste 13 Este 0 1006.2 -0.1 75
2019-08-08 23:00:00 27.2 7 Este 18 Este 0 1006.3 -0.7 71
2019-08-08 22:00:00 27.1 6 Oeste 9 Oeste 0 1006.3 -1.1 70
2019-08-08 21:00:00 28.4 4 Noroeste 15 Norte 0 1006.3 -1.5 58
2019-08-08 20:00:00 29.4 10 Norte 15 Norte 0 1007 -1.3 55
2019-08-08 19:00:00 29.9 9 Norte 18 Nordeste 0 1007.4 -1.2 54
2019-08-08 18:00:00 30.5 16 Nordeste 21 Nordeste 0 1007.8 -1.1 48
2019-08-08 17:00:00 30.4 12 Nordeste 17 Nordeste 0 1008.3 -0.8 53
2019-08-08 16:00:00 30.3 15 Nordeste 21 Nordeste 0 1008.6 -0.9 50
2019-08-08 15:00:00 30.8 17 Nordeste 30 Norte 0 1008.9 -0.9 51
2019-08-08 14:00:00 33.8 16 Oeste 24 Oeste 0 1009.1 -0.7 39
2019-08-08 13:00:00 32.2 18 Sur 28 Sudoeste 0 1009.5 0 41
2019-08-08 12:00:00 31.5 14 Sudoeste 18 Sudoeste 0 1009.8 0.3 45
2019-08-08 11:00:00 28.9 10 Sudoeste 13 Oeste 0 1009.8 0.2 52
2019-08-08 10:00:00 26.7 0 Calma 9 Sur 0 1009.5 -0.3 58
2019-08-08 09:00:00 23 7 Sur 11 Sur 0 1009.5 -0.4 75
2019-08-08 08:00:00 21 7 Sudoeste 15 Sur 0 1009.6 -0.5 86
2019-08-08 07:00:00 20.5 9 Sur 11 Sudoeste 0 1009.8 -0.5 90
2019-08-08 06:00:00 21 8 Sur 9 Sur 0 1009.9 -0.5 91
2019-08-08 05:00:00 21.6 4 Sudoeste 8 Oeste 0 1010.1 -0.8 90
2019-08-08 04:00:00 22 4 Sudoeste 8 Sudoeste 0 1010.3 -0.8 90
2019-08-08 03:00:00 22.5 3 Oeste 8 Oeste 0 1010.4 -0.7 87
2019-08-08 02:00:00 22.7 2 Sudoeste 13 Sudoeste 0 1010.9 -0.2 89
2019-08-08 01:00:00 22.9 5 Sur 17 Sudoeste 0 1011.1 0.7 87
2019-08-08 00:00:00 23 8 Oeste 13 Oeste 0 1011.1 1.1 85
2019-08-07 23:00:00 23.5 8 Oeste 13 Oeste 0 1011.1 0.9 82
2019-08-07 22:00:00 23.8 4 Norte 15 Norte 0 1010.4 0 83
2019-08-07 21:00:00 24.1 9 Norte 15 Nordeste 0 1010 -0.9 81
2019-08-07 20:00:00 24.2 12 Nordeste 21 Nordeste 0 1010.2 -1.1 77
2019-08-07 19:00:00 24.7 14 Nordeste 21 Nordeste 0 1010.4 -1.6 76
2019-08-07 18:00:00 25.1 14 Norte 22 Nordeste 0 1010.9 -1.5 74
2019-08-07 17:00:00 24.9 14 Nordeste 21 Nordeste 0 1011.3 -1.3 73
2019-08-07 16:00:00 25.1 14 Nordeste 21 Nordeste 0 1012 -1.1 73
2019-08-07 15:00:00 24.9 12 Norte 21 Norte 0 1012.4 -1.1 70
2019-08-07 14:00:00 24.8 12 Norte 17 Nordeste 0 1012.6 -0.3 71
2019-08-07 13:00:00 24.3 10 Norte 17 Nordeste 0 1013.1 0.3 70
2019-08-07 12:00:00 24.2 13 Nordeste 17 Nordeste 0 1013.5 1.3 70
2019-08-07 11:00:00 23.5 9 Nordeste 13 Norte 0 1012.9 1.1 75
2019-08-07 10:00:00 22.6 10 Sudoeste 13 Sur 0 1012.8 1.5 81
2019-08-07 09:00:00 20.2 9 Sudoeste 13 Sudoeste 0 1012.2 1.6 91
2019-08-07 08:00:00 19.7 8 Sudoeste 11 Sudoeste 0 1011.8 0.9 94
2019-08-07 07:00:00 19.4 4 Sudoeste 8 Oeste 0 1011.3 0.9 93
2019-08-07 06:00:00 19.7 5 Sur 9 Sur 0 1010.6 -0.9 94
2019-08-07 05:00:00 19.9 3 Oeste 13 Este 0 1010.9 -1.9 93
2019-08-07 04:00:00 20.1 7 Nordeste 13 Este 0 1010.4 -3 91
2019-08-07 03:00:00 20.6 8 Este 11 Este 2.9 1011.5 -1.6 93
2019-08-07 02:00:00 21.1 7 Oeste 11 Oeste 0.9 1012.8 -0.9 90
2019-08-07 01:00:00 21.5 3 Noroeste 11 Oeste 0.2 1013.4 0 87
2019-08-07 00:00:00 22.2 5 Norte 11 Noroeste 0 1013.1 0.2 79
2019-08-06 23:00:00 22.4 6 Oeste 13 Noroeste 0 1013.7 1.6 76
2019-08-06 22:00:00 22.5 3 Noroeste 15 Noroeste 0 1013.4 1.6 74
2019-08-06 21:00:00 22.9 7 Noroeste 17 Noroeste 0 1012.9 1.2 75
2019-08-06 20:00:00 23.4 8 Norte 13 Norte 0 1012.1 0.3 74
2019-08-06 19:00:00 23.6 8 Norte 18 Norte 0 1011.8 -0.2 73
2019-08-06 18:00:00 23.8 10 Norte 17 Nordeste 0 1011.7 -0.4 74
2019-08-06 17:00:00 24.2 10 Nordeste 21 Nordeste 0 1011.8 -0.8 72
2019-08-06 16:00:00 24.4 12 Nordeste 18 Nordeste 0 1012 -0.8 73
2019-08-06 15:00:00 24 11 Norte 21 Nordeste 0 1012.1 -1 74
2019-08-06 14:00:00 24 10 Norte 15 Norte 0 1012.6 -0.3 75
2019-08-06 13:00:00 24 10 Nordeste 18 Norte 0 1012.8 -0.3 73
2019-08-06 12:00:00 23.9 10 Norte 17 Norte 0 1013.1 -0.1 73
2019-08-06 11:00:00 23.8 11 Nordeste 15 Nordeste 0 1012.9 -0.5 71
2019-08-06 10:00:00 23 3 Norte 13 Sudeste 0 1013.1 -0.4 72
2019-08-06 09:00:00 21.4 10 Este 13 Sudeste 0 1013.2 -0.8 78
2019-08-06 08:00:00 20.5 10 Sudeste 11 Sudeste 0 1013.4 -0.7 84
2019-08-06 07:00:00 20.5 0 Calma 5 Sur 0 1013.5 -0.8 81
2019-08-06 06:00:00 20.4 3 Sudeste 8 Sudeste 0 1014 -0.7 86
2019-08-06 05:00:00 20.8 2 Oeste 8 Sudoeste 0 1014.1 -1 90
2019-08-06 04:00:00 21 4 Sudoeste 8 Sur 0 1014.3 -1.1 89
2019-08-06 03:00:00 21.2 5 Sur 8 Sudeste 0 1014.7 -0.7 87
2019-08-06 02:00:00 21.4 4 Sur 9 Norte 0 1015.1 -0.3 86
2019-08-06 01:00:00 21.5 5 Norte 9 Noroeste 0 1015.4 0.4 83
2019-08-06 00:00:00 21.6 4 Sur -- -- 0 1015.4 0.7 84
2019-08-05 23:00:00 21.7 5 Sur 8 Sur 0 1015.4 0.6 83
2019-08-05 22:00:00 22.1 3 Nordeste 9 Este 0 1015 0 80
2019-08-05 21:00:00 22.4 7 Este 9 Nordeste 0 1014.7 -0.4 77
2019-08-05 20:00:00 22.5 8 Nordeste 11 Nordeste 0 1014.8 -0.5 77
2019-08-05 19:00:00 22.5 6 Norte 11 Norte 0 1015 -0.6 75
2019-08-05 18:00:00 22.8 6 Norte 13 Nordeste 0 1015.1 -0.3 74
2019-08-05 17:00:00 22.9 9 Norte 13 Norte 0 1015.3 -0.2 76
2019-08-05 16:00:00 23.3 9 Norte 15 Norte 0 1015.6 -0.2 75
2019-08-05 15:00:00 23.3 10 Norte 17 Norte 0 1015.4 -0.8 74
2019-08-05 14:00:00 23.8 10 Norte 15 Norte 0 1015.5 -0.9 71
2019-08-05 13:00:00 23.2 10 Norte 15 Nordeste 0 1015.8 -0.8 75
2019-08-05 12:00:00 23 0 Calma 8 Sudoeste 0 1016.2 -0.4 74
2019-08-05 11:00:00 21.7 3 Sudoeste 9 Sudeste 0 1016.4 -0.2 81
2019-08-05 10:00:00 20.8 3 Sudoeste 8 Sudoeste 0 1016.6 0.2 87
2019-08-05 09:00:00 20.1 0 Calma 9 Sudeste 0 1016.6 0.4 88
2019-08-05 08:00:00 20.3 4 Sudoeste 9 Sur 0 1016.6 0.2 91
2019-08-05 07:00:00 19.7 3 Sur -- -- 0 1016.4 -0.1 94
2019-08-05 06:00:00 19.9 6 Sur 8 Sudeste 0.1 1016.2 -0.4 95
2019-08-05 05:00:00 20.1 4 Sur 5 Sur 0.4 1016.4 -0.7 94
2019-08-05 04:00:00 20.5 3 Sudoeste 9 Sudoeste 0 1016.5 -0.7 91
2019-08-05 03:00:00 20.5 5 Oeste 13 Oeste 0 1016.6 -0.7 91
2019-08-05 02:00:00 20.9 10 Sudoeste 13 Sudoeste 0 1017.1 -0.3 89
2019-08-05 01:00:00 21.1 7 Sudoeste 11 Oeste 0 1017.2 0.2 86
2019-08-05 00:00:00 21.2 9 Sudoeste 11 Sudoeste 0 1017.3 0.9 86
2019-08-04 23:00:00 21.4 6 Sudoeste 11 Sudoeste 0 1017.4 1.5 85
2019-08-04 22:00:00 21.8 5 Oeste 9 Sudoeste 0 1017 1.4 84
2019-08-04 21:00:00 22.2 5 Oeste 11 Noroeste 0 1016.4 0.7 79
2019-08-04 20:00:00 22.5 5 Noroeste 11 Noroeste 0 1015.9 0.3 78
2019-08-04 19:00:00 22.4 4 Este 11 Norte 0 1015.6 0 76
2019-08-04 18:00:00 22.6 8 Noroeste 13 Noroeste 0 1015.7 0.4 76
2019-08-04 17:00:00 22.6 9 Norte 17 Norte 0 1015.6 0.3 75
2019-08-04 16:00:00 22.7 9 Noroeste 17 Noroeste 0 1015.6 0 76
2019-08-04 15:00:00 23.1 11 Noroeste 21 Noroeste 0 1015.3 -0.4 75
2019-08-04 14:00:00 23.5 10 Noroeste 18 Noroeste 0 1015.3 -0.7 75
2019-08-04 13:00:00 23.8 6 Nordeste 13 Oeste 0 1015.6 -0.4 71
2019-08-04 12:00:00 22.9 7 Oeste 11 Sudoeste 0 1015.7 -0.1 77
2019-08-04 11:00:00 22.4 10 Sudoeste 13 Sudoeste 0 1016 0.5 79
2019-08-04 10:00:00 22.1 8 Sudoeste 11 Sudoeste 0 1016 0.8 80
2019-08-04 09:00:00 21.6 7 Sur 11 Sudoeste 0 1015.8 0.7 81
2019-08-04 08:00:00 21.2 8 Sudoeste 15 Sudoeste 0 1015.5 0.4 83
2019-08-04 07:00:00 20.7 10 Sudoeste 13 Sudoeste 0 1015.2 0 84
2019-08-04 06:00:00 20.7 7 Sudoeste 13 Sur 0 1015.1 0 85
2019-08-04 05:00:00 21.2 9 Sudoeste 18 Oeste 0 1015.1 -0.1 83
2019-08-04 04:00:00 21.7 10 Oeste 18 Oeste 0 1015.2 0 81
2019-08-04 03:00:00 21.9 9 Oeste 15 Oeste 0 1015.1 -0.1 82
2019-08-04 02:00:00 22.1 9 Oeste 17 Oeste 0 1015.2 0.2 82
2019-08-04 01:00:00 22.3 10 Oeste 17 Oeste 0 1015.2 0.8 82
2019-08-04 00:00:00 22.3 9 Oeste 15 Sudoeste 0 1015.2 1.7 83
2019-08-03 23:00:00 22.5 11 Sudoeste 17 Sudoeste 0 1015 1.8 82
2019-08-03 22:00:00 22.7 9 Oeste 15 Oeste 0 1014.4 1.2 81
2019-08-03 21:00:00 24.5 8 Oeste 13 Noroeste 0 1013.5 0.3 75
2019-08-03 20:00:00 24.5 6 Nordeste 11 Norte 0 1013.2 0.1 70
2019-08-03 19:00:00 25.8 6 Norte 21 Norte 0 1013.2 0.1 65
2019-08-03 18:00:00 26.2 11 Norte 17 Norte 0 1013.2 -0.3 67
2019-08-03 17:00:00 26.1 13 Norte 21 Norte 0 1013.1 -0.9 69
2019-08-03 16:00:00 26 14 Norte 21 Norte 0 1013.1 -1.4 71
2019-08-03 15:00:00 25.3 11 Nordeste 18 Nordeste 0 1013.5 -1.3 70
2019-08-03 14:00:00 24.3 12 Nordeste 18 Norte 0 1014 -1.2 73
2019-08-03 13:00:00 24 12 Norte 18 Norte 0 1014.5 -1 74
2019-08-03 12:00:00 23.2 12 Norte 17 Nordeste 0 1014.8 -1 75
2019-08-03 11:00:00 22.5 5 Nordeste 13 Sudeste 0 1015.2 -0.5 71
2019-08-03 10:00:00 20.4 6 Sudeste 9 Sudeste 0 1015.5 -0.3 77
2019-08-03 09:00:00 18.7 5 Sudeste 9 Sudeste 0 1015.8 0 83
2019-08-03 08:00:00 17.2 6 Sur 11 Sur 0 1015.7 -0.4 90
2019-08-03 07:00:00 17.3 8 Sudeste 9 Sudeste 0 1015.8 -0.5 90
2019-08-03 06:00:00 17.5 8 Sudeste 11 Sudeste 0 1015.8 -0.8 89
2019-08-03 05:00:00 17.3 9 Sur 11 Sur 0 1016.1 -1.1 90
2019-08-03 04:00:00 17.6 8 Sur 11 Sur 0 1016.3 -1.1 90
2019-08-03 03:00:00 18 6 Sur 9 Sur 0 1016.6 -0.8 89
2019-08-03 02:00:00 18.6 6 Sur 8 Sur 0 1017.2 -0.4 89
2019-08-03 01:00:00 19.1 5 Sur 8 Sur 0 1017.4 0.2 88
2019-08-03 00:00:00 19.7 6 Sur 9 Sur 0 1017.4 0.4 86
2019-08-02 23:00:00 20.8 8 Sur 9 Sur 0 1017.6 0.7 83
2019-08-02 22:00:00 21.5 7 Nordeste 13 Nordeste 0 1017.2 0.1 79
2019-08-02 21:00:00 21.8 9 Norte 15 Nordeste 0 1017 -0.4 76
2019-08-02 20:00:00 22.5 10 Norte 18 Nordeste 0 1016.9 -0.7 72
2019-08-02 19:00:00 23.1 13 Nordeste 21 Nordeste 0 1017.1 -0.9 69
2019-08-02 18:00:00 23.4 12 Norte 18 Nordeste 0 1017.4 -0.8 67
2019-08-02 17:00:00 23.4 11 Norte 18 Nordeste 0 1017.6 -0.7 66
2019-08-02 16:00:00 23.8 13 Norte 18 Nordeste 0 1018 -0.4 65
2019-08-02 15:00:00 23.8 13 Norte 18 Nordeste 0 1018.2 -0.3 66
2019-08-02 14:00:00 23.5 12 Norte 18 Norte 0 1018.3 0 63
2019-08-02 13:00:00 23.2 13 Nordeste 18 Nordeste 0 1018.4 0.2 68
2019-08-02 12:00:00 22.8 9 Norte 15 Norte 0 1018.5 0.5 71
2019-08-02 11:00:00 21.4 2 Norte 8 Sur 0 1018.3 0.7 76
2019-08-02 10:00:00 20.4 4 Sur 9 Sudoeste 0 1018.2 0.9 83
2019-08-02 09:00:00 19.3 4 Sur 9 Sur 0 1018 0.8 89
2019-08-02 08:00:00 18.3 8 Sur 11 Sur 0 1017.6 0.2 90
2019-08-02 07:00:00 18.2 10 Sur 11 Sur 0 1017.3 -0.1 91
2019-08-02 06:00:00 18.8 9 Sudoeste 13 Sur 0 1017.2 -0.4 91
2019-08-02 05:00:00 19.3 7 Sudoeste 11 Oeste 0 1017.4 -0.4 90
2019-08-02 04:00:00 19.5 9 Sudoeste 11 Sudoeste 0 1017.4 -0.5 89
2019-08-02 03:00:00 20.2 2 Sudeste 11 Sudoeste 0 1017.6 -0.4 85
2019-08-02 02:00:00 20.3 5 Sudoeste 8 Sudoeste 0 1017.8 0.1 83
2019-08-02 01:00:00 20.4 5 Sudoeste 8 Sudoeste 0 1017.9 0.8 83
2019-08-02 00:00:00 20.5 8 Sudoeste 11 Oeste 0 1018 1.4 82
2019-08-01 23:00:00 20.7 5 Oeste 11 Oeste 0 1017.7 1.6 77
2019-08-01 22:00:00 20.8 7 Noroeste 13 Noroeste 0 1017.1 1.4 77
2019-08-01 21:00:00 21.2 8 Noroeste 15 Noroeste 0 1016.6 1.4 77
2019-08-01 20:00:00 21.8 7 Oeste 15 Oeste 0 1016.1 1.4 74
2019-08-01 19:00:00 22 9 Oeste 17 Norte 0 1015.7 1.3 75
2019-08-01 18:00:00 22.2 10 Norte 21 Norte 0 1015.2 1 76
2019-08-01 17:00:00 23.5 13 Norte 22 Norte 0 1014.7 0.7 72
2019-08-01 16:00:00 24.7 12 Noroeste 26 Noroeste 0 1014.4 0.2 63
2019-08-01 15:00:00 24 17 Oeste 32 Oeste 0 1014.2 -0.3 67
2019-08-01 14:00:00 24.9 12 Noroeste 24 Noroeste 0 1014 -0.4 68
2019-08-01 13:00:00 23.3 12 Nordeste 17 Norte 0 1014.2 0.2 70
2019-08-01 12:00:00 22.4 3 Oeste 13 Sudoeste 0 1014.5 0.5 72
2019-08-01 11:00:00 19.4 10 Sur 24 Sur 0.2 1014.4 -1.1 84
2019-08-01 10:00:00 17.9 17 Sudeste 41 Sur 2.5 1014 -1.7 85
2019-08-01 09:00:00 17.6 19 Sudeste 39 Sudeste 2.1 1014 -2.6 87
2019-08-01 08:00:00 17.5 9 Sudeste 39 Sudoeste 14 1015.5 0.8 89
2019-08-01 07:00:00 18 13 Nordeste 24 Este 3.1 1015.7 0.3 90
2019-08-01 06:00:00 17.3 16 Sudoeste 28 Sudoeste 0.1 1016.6 0.9 91
2019-08-01 05:00:00 17.4 0 Calma 9 Sudeste 0 1014.7 -1.7 87
2019-08-01 04:00:00 17.7 4 Sur 9 Sur 0 1015.4 -1.7 87
2019-08-01 03:00:00 17.8 5 Sur 9 Sur 0 1015.7 -1.6 88
2019-08-01 02:00:00 18 5 Sudeste 8 Sur 0 1016.4 -1.1 87
2019-08-01 01:00:00 18.5 3 Sur 9 Sur 0 1017.1 -0.2 86
2019-08-01 00:00:00 19.4 8 Sur 11 Sur 0 1017.3 0.3 82
2019-07-31 23:00:00 20 4 Sur 18 Nordeste 0 1017.5 0.5 78
2019-07-31 22:00:00 20.8 10 Nordeste 21 Nordeste 0 1017.3 0 73
2019-07-31 21:00:00 20.9 15 Nordeste 24 Nordeste 0 1017 -0.5 70
2019-07-31 20:00:00 21.5 15 Nordeste 22 Nordeste 0 1017 -0.7 67
2019-07-31 19:00:00 21.7 14 Nordeste 22 Nordeste 0 1017.3 -0.6 67
2019-07-31 18:00:00 22.6 14 Norte 24 Norte 0 1017.5 -0.7 64
2019-07-31 17:00:00 22.4 15 Norte 28 Norte 0 1017.7 -1.2 63
2019-07-31 16:00:00 23.1 16 Norte 30 Norte 0 1017.9 -1.6 60
2019-07-31 15:00:00 23.4 20 Nordeste 28 Nordeste 0 1018.2 -1.8 55
2019-07-31 14:00:00 22.9 19 Nordeste 28 Nordeste 0 1018.9 -1.3 54
2019-07-31 13:00:00 22 20 Nordeste 28 Nordeste 0 1019.5 -1.1 55
2019-07-31 12:00:00 21.6 13 Norte 22 Norte 0 1020 -0.8 64
2019-07-31 11:00:00 20.5 9 Norte 13 Norte 0 1020.2 -0.6 65
2019-07-31 10:00:00 17.7 3 Sur 9 Sur 0 1020.6 -0.2 75
2019-07-31 09:00:00 15.4 7 Sur 11 Sudeste 0 1020.8 0 82
2019-07-31 08:00:00 14.2 6 Sur 13 Sudeste 0 1020.8 -0.1 88
2019-07-31 07:00:00 13.9 8 Sudeste 11 Sur 0 1020.8 -0.1 89
2019-07-31 06:00:00 14.2 8 Sur 15 Sudeste 0 1020.8 -0.3 89
2019-07-31 05:00:00 14.4 8 Sur 13 Sur 0 1020.9 -0.4 90
2019-07-31 04:00:00 14.7 9 Sur 13 Sur 0 1020.9 -0.6 89
2019-07-31 03:00:00 14.6 10 Sur 11 Sur 0 1021.1 -0.7 90
2019-07-31 02:00:00 15.1 8 Sur 9 Sur 0 1021.3 -0.4 88
2019-07-31 01:00:00 15.3 7 Sur 9 Sur 0 1021.5 0.3 89
2019-07-31 00:00:00 16.2 8 Sur 9 Sur 0 1021.8 0.8 86
2019-07-30 23:00:00 17.1 7 Sur 11 Sur 0 1021.7 1 84
2019-07-30 22:00:00 18.4 9 Sur 13 Sur 0 1021.2 0.4 80
2019-07-30 21:00:00 19.4 5 Sudoeste 17 Noroeste 0.2 1021 0 78
2019-07-30 20:00:00 20.5 9 Oeste 21 Oeste 0 1020.7 -0.2 62
2019-07-30 19:00:00 21.1 12 Noroeste 21 Oeste 0 1020.8 -0.2 62
2019-07-30 18:00:00 21.4 13 Noroeste 26 Noroeste 0 1021 0.1 59
2019-07-30 17:00:00 22.8 13 Oeste 28 Noroeste 0 1020.9 0.1 51
2019-07-30 16:00:00 22 16 Noroeste 28 Oeste 0 1021 0.2 56
2019-07-30 15:00:00 22.1 16 Oeste 30 Noroeste 0 1020.9 0.2 56
2019-07-30 14:00:00 22 16 Oeste 28 Noroeste 0 1020.8 0.6 62
2019-07-30 13:00:00 19.3 11 Oeste 39 Oeste 0.1 1020.8 0.9 69
2019-07-30 12:00:00 19.1 19 Oeste 41 Oeste 0.4 1020.7 1.4 73
2019-07-30 11:00:00 18 17 Sudoeste 30 Sudoeste 0.7 1020.2 1.4 81
2019-07-30 10:00:00 17 12 Sudoeste 18 Sudoeste 3 1019.9 1.5 89
2019-07-30 09:00:00 17.4 10 Sudoeste 18 Oeste 0.4 1019.3 1.3 89
2019-07-30 08:00:00 17.1 9 Sur 15 Sur 2.6 1018.8 1.1 88
2019-07-30 07:00:00 17.7 12 Sur 22 Oeste 0.1 1018.4 0.9 83
2019-07-30 06:00:00 17.7 9 Oeste 18 Sur 0 1018 0.4 78
2019-07-30 05:00:00 17.4 12 Sudoeste 18 Sudoeste 0.1 1017.7 0.5 86
2019-07-30 04:00:00 17.7 9 Sudoeste 13 Sudoeste 0.1 1017.5 0.5 89
2019-07-30 03:00:00 17.7 10 Sudoeste 17 Sudoeste 0.4 1017.6 0.7 88
2019-07-30 02:00:00 17.7 12 Sudoeste 18 Oeste 0 1017.2 1 87
2019-07-30 01:00:00 17.7 12 Sudoeste 24 Sudoeste 0 1017 1.9 89
2019-07-30 00:00:00 18.1 10 Sur 28 Oeste 0.9 1016.9 2.4 86
2019-07-29 23:00:00 20.7 9 Oeste 18 Oeste 0 1016.2 2.1 68
2019-07-29 22:00:00 21 6 Noroeste 13 Norte 0 1015.1 1.3 67
2019-07-29 21:00:00 21.5 8 Noroeste 17 Noroeste 0 1014.5 1.1 63
2019-07-29 20:00:00 21.7 8 Noroeste 18 Noroeste 0 1014.1 1.1 64
2019-07-29 19:00:00 21.7 9 Noroeste 21 Noroeste 0 1013.8 1.3 67
2019-07-29 18:00:00 22.1 10 Noroeste 21 Noroeste 0 1013.4 1.4 68
2019-07-29 17:00:00 22.2 14 Noroeste 28 Noroeste 0 1013 1.4 69
2019-07-29 16:00:00 23.1 16 Noroeste 30 Noroeste 0 1012.5 1.7 67
2019-07-29 15:00:00 23.8 16 Oeste 37 Noroeste 0 1012 1.9 70
2019-07-29 14:00:00 24.1 21 Oeste 35 Oeste 0 1011.6 2 70
2019-07-29 13:00:00 24.6 21 Oeste 35 Noroeste 0 1010.8 1.7 69
2019-07-29 12:00:00 24.5 18 Noroeste 28 Noroeste 0 1010.1 1.3 66
2019-07-29 11:00:00 23.8 4 Sudoeste 13 Sudoeste 0 1009.6 1 55
2019-07-29 10:00:00 20.9 6 Sur 9 Sur 0 1009.1 0.3 64
2019-07-29 09:00:00 17.4 6 Sur 18 Sur 0 1008.8 0.1 76
2019-07-29 08:00:00 14.9 8 Sur 11 Sur 0 1008.6 -0.2 83
2019-07-29 07:00:00 13.6 7 Sudoeste 9 Sudoeste 0 1008.8 -0.2 90
2019-07-29 06:00:00 14.1 7 Sur 9 Sur 0 1008.7 -0.4 88
2019-07-29 05:00:00 14.2 7 Sudoeste 11 Sudoeste 0 1008.8 -0.9 90
2019-07-29 04:00:00 14.3 3 Oeste 8 Oeste 0 1009 -1 91
2019-07-29 03:00:00 15 6 Sudoeste 9 Oeste 0 1009.1 -1.4 90
2019-07-29 02:00:00 15.5 0 Calma 8 Sur 0 1009.7 -1.3 89
2019-07-29 01:00:00 16.4 6 Sudoeste 9 Sur 0 1010 -1 86
2019-07-29 00:00:00 17.7 10 Sudeste 18 Este 0 1010.5 -0.8 81
2019-07-28 23:00:00 18.2 3 Oeste 9 Sudeste 0 1011 -0.5 80
2019-07-28 22:00:00 20.4 6 Sudeste 9 Este 0 1011 -0.7 67
2019-07-28 21:00:00 21.2 9 Nordeste 17 Nordeste 0 1011.3 -0.9 61
2019-07-28 20:00:00 21.7 14 Nordeste 21 Nordeste 0 1011.5 -1 58
2019-07-28 19:00:00 22 12 Nordeste 17 Nordeste 0 1011.7 -1.2 56
2019-07-28 18:00:00 22.3 10 Norte 18 Norte 0 1012.2 -1.1 61
2019-07-28 17:00:00 22.5 12 Norte 18 Norte 0 1012.5 -1.1 60
2019-07-28 16:00:00 23.1 10 Norte 18 Norte 0 1012.9 -0.8 59
2019-07-28 15:00:00 22.6 8 Noroeste 15 Noroeste 0 1013.3 -0.4 65
2019-07-28 14:00:00 20.8 9 Oeste 15 Oeste 0.1 1013.6 0 76
2019-07-28 13:00:00 20.3 7 Oeste 21 Sudoeste 0 1013.7 0.1 76
2019-07-28 12:00:00 20.8 9 Sudoeste 24 Sudoeste 0 1013.7 0.6 77
2019-07-28 11:00:00 18.5 17 Sudoeste 24 Sudoeste 0 1013.6 0.6 85
2019-07-28 10:00:00 18.2 15 Sudoeste 21 Sur 0 1013.6 0.9 87
2019-07-28 09:00:00 17 12 Sudoeste 18 Sudoeste 0 1013.1 0.5 90
2019-07-28 08:00:00 16.5 10 Sudoeste 28 Sudoeste 0 1013 0.4 91
2019-07-28 07:00:00 16.2 17 Sudoeste 22 Sudoeste 0 1012.7 0 93
2019-07-28 06:00:00 16.4 14 Sudoeste 26 Sudoeste 0.7 1012.6 -0.1 93
2019-07-28 05:00:00 16.2 14 Sudoeste 22 Sudoeste 0 1012.6 -0.2 93
2019-07-28 04:00:00 16.2 11 Sudoeste 26 Sur 2.1 1012.7 -0.3 93
2019-07-28 03:00:00 16.4 14 Sudoeste 22 Sudoeste 0.6 1012.7 0 93
2019-07-28 02:00:00 16.5 10 Sudoeste 18 Sudoeste 2.6 1012.8 0.1 92
2019-07-28 01:00:00 16.7 11 Sudoeste 37 Sudoeste 2.6 1013 0.9 90
2019-07-28 00:00:00 16.6 17 Sudoeste 28 Sudoeste 0 1012.7 1.1 89
2019-07-27 23:00:00 16.9 18 Sudoeste 30 Sudoeste 0 1012.7 1.6 89
2019-07-26 12:00:00 21.1 22 Sudoeste 32 Sudoeste 0.8 1013.5 -0.4 88
2019-07-26 11:00:00 22.1 4 Nordeste 13 Norte 0 1013.1 0.1 86
2019-07-26 10:00:00 21.5 3 Noroeste 18 Este 0.4 1012.9 -0.5 93
2019-07-26 09:00:00 21.1 5 Sudoeste 9 Oeste 0 1013.9 0.5 93
2019-07-26 08:00:00 20.7 2 Nordeste 13 Este 0.2 1013 -0.7 93
2019-07-26 07:00:00 20.9 8 Este 15 Sur 7.6 1013.4 -0.5 95
2019-07-26 06:00:00 21.1 5 Norte 11 Sur 1.1 1013.4 -0.8 92
2019-07-26 05:00:00 21.1 6 Sudeste 11 Sudeste 0.4 1013.7 -0.5 92
2019-07-26 04:00:00 21.6 7 Este 17 Norte 0 1013.9 -0.2 89
2019-07-26 03:00:00 22 9 Norte 18 Noroeste 0.3 1014.2 -0.1 89
2019-07-26 02:00:00 22.5 9 Oeste 15 Noroeste 0 1014.2 0.2 86
2019-07-26 01:00:00 22.5 0 Calma 15 Noroeste 0 1014.1 1.3 87
2019-07-26 00:00:00 22.3 7 Oeste 30 Noroeste 0.1 1014.3 2.5 84
2019-07-25 23:00:00 22.7 12 Oeste 32 Oeste 0 1014 0.6 87
2019-07-25 22:00:00 22.5 9 Sudoeste 24 Sudoeste 0.2 1012.8 1.5 92
2019-07-25 21:00:00 22.8 4 Noroeste 35 Sudoeste 7.2 1011.8 0.7 89
2019-07-25 20:00:00 24 21 Sudoeste 35 Oeste 0 1013.4 2.3 80
2019-07-25 19:00:00 24.4 15 Oeste 26 Oeste 0 1011.3 0.3 81
2019-07-25 18:00:00 25.1 12 Noroeste 21 Noroeste 0 1011.1 0.3 77
2019-07-25 17:00:00 25 8 Norte 15 Norte 0 1011.1 0.1 79
2019-07-25 16:00:00 25.3 11 Norte 21 Nordeste 0 1011 0.2 76
2019-07-25 15:00:00 25.7 12 Norte 18 Norte 0 1010.8 -0.1 75
2019-07-25 14:00:00 25.9 12 Norte 21 Nordeste 0 1011 0.3 75
2019-07-25 13:00:00 26.4 13 Norte 18 Norte 0 1010.8 0.3 75
2019-07-25 12:00:00 25.6 11 Norte 17 Norte 0 1010.9 0.7 77
2019-07-25 11:00:00 25.5 11 Nordeste 15 Norte 0 1010.7 0.4 77
2019-07-25 10:00:00 24.3 10 Norte 13 Norte 0 1010.5 0.4 82
2019-07-25 09:00:00 23.8 5 Nordeste 17 Sudeste 0 1010.2 0.3 84
2019-07-25 08:00:00 23.2 0 Calma 8 Norte 0 1010.3 0.4 88
2019-07-25 07:00:00 23 0 Calma 5 Norte 0 1010.1 0.2 88
2019-07-25 06:00:00 22.9 4 Sudeste 11 Oeste 0 1009.9 0.6 89
2019-07-25 05:00:00 23.2 5 Oeste 15 Sudoeste 0 1009.9 1.8 88
2019-07-25 04:00:00 23.9 11 Sudoeste 17 Sudoeste 0 1009.9 1.3 85
2019-07-25 03:00:00 25.1 10 Oeste 32 Oeste 0 1009.3 -0.1 77
2019-07-25 02:00:00 25.6 7 Noroeste 15 Norte 0 1008.1 -1.8 76
2019-07-25 01:00:00 24.7 9 Nordeste 13 Nordeste 0 1008.6 -1.3 86
2019-07-25 00:00:00 24.6 5 Oeste 11 Sudoeste 0 1009.4 -0.5 86
2019-07-24 23:00:00 25 3 Oeste 8 Nordeste 0 1009.9 -0.6 85
2019-07-24 22:00:00 25.3 7 Norte 17 Nordeste 0 1009.9 0.4 84
2019-07-24 21:00:00 26.1 10 Nordeste 18 Sur 0 1009.9 -0.6 81
2019-07-24 20:00:00 28.5 17 Sudoeste 30 Sudoeste 0 1010.5 -0.5 73
2019-07-24 19:00:00 27.1 9 Norte 18 Norte 0 1009.5 -2.2 77
2019-07-24 18:00:00 27 13 Norte 21 Nordeste 0 1010.5 -1.9 77
2019-07-24 17:00:00 27.1 14 Norte 21 Norte 0 1011 -2.3 74
2019-07-24 16:00:00 27.1 13 Norte 18 Nordeste 0 1011.7 -2.5 73
2019-07-24 15:00:00 27.1 13 Norte 21 Norte 0 1012.4 -2.1 71
2019-07-24 14:00:00 26.1 13 Norte 18 Norte 0 1013.3 -1.4 73
2019-07-24 13:00:00 25.7 13 Nordeste 21 Norte 0 1014.2 -0.7 75
2019-07-24 12:00:00 25.8 15 Nordeste 18 Nordeste 0 1014.5 -0.7 75
2019-07-24 11:00:00 25.9 10 Norte 13 Norte 0 1014.7 -0.6 72
2019-07-24 10:00:00 25.1 5 Este 11 Sudoeste 0 1014.9 0 73
2019-07-24 09:00:00 24.2 8 Sudoeste 13 Sur 0 1015.2 1.1 78
2019-07-24 08:00:00 23 8 Sudoeste 13 Sur 0 1015.3 0.8 84
2019-07-24 07:00:00 22.3 5 Oeste 9 Nordeste 0 1014.9 -0.1 88
2019-07-24 06:00:00 22.6 9 Este 15 Este 0 1014.1 -1.2 87
2019-07-24 05:00:00 22.6 8 Este 11 Este 0 1014.5 -1.6 87
2019-07-24 04:00:00 22.5 6 Este 17 Nordeste 0 1015 -1.9 87
2019-07-24 03:00:00 23.1 12 Este 17 Nordeste 0 1015.3 -0.9 84
2019-07-24 02:00:00 23.4 2 Sudoeste 18 Oeste 0 1016.1 -1 82
2019-07-24 01:00:00 23.4 14 Oeste 28 Oeste 0 1016.9 2.6 82
2019-07-24 00:00:00 24.1 6 Oeste 28 Oeste 0 1016.2 2 78
2019-07-23 23:00:00 24.1 11 Sudoeste 55 Sudoeste 0 1017.1 3.2 78
2019-07-23 22:00:00 27.2 18 Oeste 28 Noroeste 0.1 1014.3 3.7 58
2019-07-23 21:00:00 26.4 13 Sudoeste 59 Oeste 0.1 1014.2 3.3 69
2019-07-23 20:00:00 28 22 Oeste 41 Oeste 0 1013.9 2.5 67
2019-07-23 19:00:00 33.5 14 Norte 22 Norte 0 1010.6 -0.8 41
2019-07-23 18:00:00 33 17 Norte 22 Norte 0 1010.9 -1 43
2019-07-23 17:00:00 34.6 13 Norte 22 Sudeste 0 1011.4 -1.4 36
2019-07-23 16:00:00 39.8 19 Sur 28 Sur 0 1011.4 -1.7 19
2019-07-23 15:00:00 36.1 8 Norte 17 Norte 0 1011.9 -1.5 31
2019-07-23 14:00:00 38.2 10 Norte 22 Este 0 1012.8 -0.7 20
2019-07-23 13:00:00 36.2 9 Norte 26 Sur 0 1013.1 0.3 26
2019-07-23 12:00:00 36.8 13 Sur 32 Sudoeste 0 1013.4 0.4 21
2019-07-23 11:00:00 33.3 12 Norte 21 Sudoeste 0 1013.5 0 29
2019-07-23 10:00:00 26.5 6 Norte 11 Sur 0 1012.8 -0.8 67
2019-07-23 09:00:00 23.3 7 Sudoeste 11 Sur 0 1013 -1.2 81
2019-07-23 08:00:00 21.5 0 Calma 8 Oeste 0 1013.5 -1.8 90
2019-07-23 07:00:00 20.8 6 Sudoeste 13 Oeste 0 1013.6 -2.1 91
2019-07-23 06:00:00 21.3 9 Sudeste 13 Este 0 1014.2 -1.7 89
2019-07-23 05:00:00 21.6 8 Sur 9 Sur 0 1015.3 -1.3 89
2019-07-23 04:00:00 22 5 Oeste 8 Sudoeste 0 1015.7 -1.4 88
2019-07-23 03:00:00 22.6 9 Sudoeste 13 Oeste 0 1015.9 0.1 85
2019-07-23 02:00:00 23.3 8 Sudoeste 15 Sudoeste 0 1016.6 0.9 84
2019-07-23 01:00:00 23.5 8 Oeste 18 Sudoeste 0 1017.1 1.6 85
2019-07-23 00:00:00 23.9 7 Sudoeste 17 Sudoeste 0 1015.8 0.2 84
2019-07-22 23:00:00 24.8 7 Sudoeste 13 Sudoeste 0 1015.7 0 80
2019-07-22 22:00:00 25.8 2 Sudoeste 8 Este 0 1015.5 -0.7 75
2019-07-22 21:00:00 26.1 6 Nordeste 11 Nordeste 0 1015.6 -1.1 71
2019-07-22 20:00:00 26.5 7 Norte 13 Norte 0 1015.7 -1.4 70
2019-07-22 19:00:00 26.7 8 Norte 17 Nordeste 0 1016.2 -1.4 68
2019-07-22 18:00:00 27.3 12 Nordeste 17 Este 0 1016.7 -1.5 70
2019-07-22 17:00:00 28.2 14 Nordeste 21 Nordeste 0 1017.1 -1.7 67
2019-07-22 16:00:00 27.4 13 Norte 21 Nordeste 0 1017.6 -1.9 68
2019-07-22 15:00:00 26.2 13 Norte 18 Nordeste 0 1018.2 -1.9 72
2019-07-22 14:00:00 26 12 Norte 18 Nordeste 0 1018.8 -1.9 72
2019-07-22 13:00:00 25.9 12 Norte 21 Norte 0 1019.5 -1.3 69
2019-07-22 12:00:00 24.9 10 Norte 13 Nordeste 0 1020.1 -1.1 72
2019-07-22 11:00:00 23.3 6 Sudoeste 15 Sudoeste 0 1020.7 -0.6 77
2019-07-22 10:00:00 23.1 5 Este 8 Sudeste 0 1020.8 -0.5 75
2019-07-22 09:00:00 21.8 4 Este 15 Sudeste 0 1021.2 -0.2 79
2019-07-22 08:00:00 21.5 4 Sudeste 11 Sudeste 0 1021.3 -0.3 82
2019-07-22 07:00:00 21.6 8 Sudoeste 11 Sudoeste 0 1021.3 -0.7 82
2019-07-22 06:00:00 21.8 4 Sur 9 Sudoeste 0 1021.4 -0.9 81
2019-07-22 05:00:00 21.8 5 Oeste 9 Sur 0 1021.6 -1.2 81
2019-07-22 04:00:00 22.1 2 Sur 5 Sudoeste 0 1022 -0.9 78
2019-07-22 03:00:00 22.2 3 Este 11 Sur 0 1022.3 -0.7 80
2019-07-22 02:00:00 22.3 8 Sudoeste 11 Oeste 0 1022.8 -0.4 80
2019-07-22 01:00:00 22.6 9 Sur 9 Sur 0 1022.9 0.4 79
2019-07-22 00:00:00 22.8 3 Este 8 Este 0 1023 1 78
2019-07-21 23:00:00 23 0 Calma 8 Nordeste 0 1023.2 1.7 76
2019-07-21 22:00:00 23 6 Nordeste 17 Nordeste 0 1022.5 1.5 75
2019-07-21 21:00:00 23.4 12 Norte 17 Norte 0 1022 1.4 73
2019-07-21 20:00:00 24.3 10 Norte 17 Norte 0 1021.5 1 71
2019-07-21 19:00:00 24.7 13 Nordeste 21 Nordeste 0 1021 0.2 71
2019-07-21 18:00:00 25.2 12 Norte 21 Nordeste 0 1020.6 -0.7 70
2019-07-21 17:00:00 25.5 12 Norte 18 Norte 0 1020.5 -1.1 68
2019-07-21 16:00:00 25.1 13 Norte 21 Nordeste 0 1020.8 -0.7 70
2019-07-21 15:00:00 24.5 14 Nordeste 22 Norte 0 1021.3 0.1 71
2019-07-21 14:00:00 24.7 15 Norte 28 Nordeste 0 1021.6 0.6 71
2019-07-21 13:00:00 24.1 17 Norte 26 Norte 0 1021.5 0.6 72
2019-07-21 12:00:00 23.1 19 Nordeste 28 Nordeste 0 1021.2 0.3 78
2019-07-21 11:00:00 23.5 18 Nordeste 26 Nordeste 0 1021 0.5 79
2019-07-21 10:00:00 23 13 Nordeste 17 Nordeste 0 1020.9 0.5 76
2019-07-21 09:00:00 22.1 6 Nordeste 9 Nordeste 0 1020.9 0.7 81
2019-07-21 08:00:00 20.8 3 Sudeste 9 Sudeste 0 1020.5 0.2 88
2019-07-21 07:00:00 20.5 4 Este 8 Sur 0 1020.4 0 89
2019-07-21 06:00:00 20.9 8 Sudeste 13 Sudeste 0 1020.2 -0.5 88
2019-07-21 05:00:00 20.9 5 Sur 9 Sur 0 1020.3 -0.5 91
2019-07-21 04:00:00 21.2 6 Sudeste 11 Sur 0.4 1020.4 -0.4 91
2019-07-21 03:00:00 21.9 7 Sur 11 Sudeste 0 1020.7 0.2 85
2019-07-21 02:00:00 22.3 6 Norte 13 Norte 0 1020.8 0.5 80
2019-07-21 01:00:00 22.2 7 Norte 13 Norte 0 1020.8 1.4 81
2019-07-21 00:00:00 22.2 4 Noroeste 11 Norte 0 1020.5 1.8 82